createdAt,value
2018-05-07T00:01:11.288Z,12.00
2018-05-07T00:03:38.807Z,12.00
2018-05-07T00:06:06.514Z,11.60
2018-05-07T00:08:34.076Z,11.50
2018-05-07T00:11:01.679Z,11.50
2018-05-07T00:19:36.383Z,11.40
2018-05-07T00:22:28.219Z,11.60
2018-05-07T00:24:56.005Z,11.50
2018-05-07T00:27:24.402Z,11.50
2018-05-07T00:29:52.030Z,11.50
2018-05-07T00:32:19.619Z,11.60
2018-05-07T00:34:47.237Z,11.70
2018-05-07T00:37:14.857Z,11.80
2018-05-07T00:39:42.482Z,11.40
2018-05-07T00:42:09.992Z,11.10
2018-05-07T00:44:37.490Z,11.00
2018-05-07T00:47:04.986Z,10.80
2018-05-07T00:49:33.255Z,11.00
2018-05-07T00:52:01.525Z,11.00
2018-05-07T00:54:30.073Z,11.00
2018-05-07T00:56:57.581Z,10.90
2018-05-07T00:59:25.086Z,11.10
2018-05-07T01:01:52.593Z,11.00
2018-05-07T01:04:20.862Z,10.90
2018-05-07T01:06:49.129Z,10.80
2018-05-07T01:09:16.640Z,10.80
2018-05-07T01:11:44.149Z,10.60
2018-05-07T01:19:59.097Z,11.00
2018-05-07T01:22:26.712Z,11.00
2018-05-07T01:24:54.204Z,11.00
2018-05-07T01:27:21.701Z,10.90
2018-05-07T01:29:49.197Z,11.00
2018-05-07T01:32:17.466Z,11.10
2018-05-07T01:34:44.965Z,11.10
2018-05-07T01:37:12.476Z,11.00
2018-05-07T01:39:39.977Z,10.90
2018-05-07T01:42:07.472Z,10.90
2018-05-07T01:44:34.973Z,11.00
2018-05-07T01:47:03.238Z,10.90
2018-05-07T01:49:30.733Z,10.90
2018-05-07T01:51:58.317Z,11.00
2018-05-07T01:54:25.832Z,11.00
2018-05-07T01:56:54.101Z,10.90
2018-05-07T01:59:22.371Z,10.80
2018-05-07T02:01:49.869Z,10.80
2018-05-07T02:04:17.372Z,10.80
2018-05-07T02:06:44.866Z,10.80
2018-05-07T02:09:13.142Z,10.80
2018-05-07T02:11:41.410Z,10.80
2018-05-07T02:14:10.329Z,10.80
2018-05-07T02:16:37.825Z,10.70
2018-05-07T02:19:05.323Z,10.60
2018-05-07T02:21:53.168Z,10.40
2018-05-07T02:27:14.589Z,10.40
2018-05-07T02:29:42.881Z,10.50
2018-05-07T02:32:11.150Z,10.30
2018-05-07T02:34:39.419Z,10.40
2018-05-07T02:37:07.686Z,10.40
2018-05-07T02:39:35.184Z,10.40
2018-05-07T02:42:02.703Z,10.20
2018-05-07T02:44:30.202Z,10.10
2018-05-07T02:46:57.710Z,10.20
2018-05-07T02:49:25.206Z,10.20
2018-05-07T02:51:53.478Z,10.10
2018-05-07T02:54:21.753Z,10.00
2018-05-07T02:56:50.029Z,10.10
2018-05-07T02:59:18.300Z,10.10
2018-05-07T03:01:46.589Z,10.00
2018-05-07T03:04:14.128Z,10.00
2018-05-07T03:06:41.620Z,10.10
2018-05-07T03:09:09.125Z,10.10
2018-05-07T03:11:36.629Z,10.10
2018-05-07T03:14:11.062Z,10.00
2018-05-07T03:22:26.414Z,10.10
2018-05-07T03:24:53.916Z,10.00
2018-05-07T03:27:22.177Z,9.90
2018-05-07T03:29:49.670Z,9.90
2018-05-07T03:32:17.169Z,9.90
2018-05-07T03:34:44.668Z,9.90
2018-05-07T03:37:12.926Z,9.80
2018-05-07T03:39:40.425Z,9.80
2018-05-07T03:42:07.922Z,9.80
2018-05-07T03:44:35.417Z,9.70
2018-05-07T03:47:03.681Z,9.80
2018-05-07T03:49:31.183Z,9.80
2018-05-07T03:51:58.941Z,9.80
2018-05-07T03:54:26.441Z,9.60
2018-05-07T03:56:53.940Z,9.30
2018-05-07T03:59:22.205Z,9.40
2018-05-07T04:01:49.701Z,9.40
2018-05-07T04:04:17.201Z,9.50
2018-05-07T04:06:44.702Z,9.70
2018-05-07T04:09:12.978Z,10.00
2018-05-07T04:11:41.242Z,9.80
2018-05-07T04:14:16.077Z,9.80
2018-05-07T04:16:56.005Z,9.90
2018-05-07T04:22:27.833Z,10.10
2018-05-07T04:24:55.328Z,10.20
2018-05-07T04:27:22.834Z,10.50
2018-05-07T04:29:51.114Z,10.60
2018-05-07T04:32:18.622Z,10.60
2018-05-07T04:34:46.131Z,10.70
2018-05-07T04:37:14.394Z,10.70
2018-05-07T04:39:42.658Z,10.70
2018-05-07T04:42:10.161Z,10.70
2018-05-07T04:44:37.661Z,10.80
2018-05-07T04:47:05.173Z,10.90
2018-05-07T04:49:32.676Z,10.90
2018-05-07T04:52:00.181Z,10.80
2018-05-07T04:54:27.774Z,10.90
2018-05-07T04:56:55.282Z,11.00
2018-05-07T04:59:23.556Z,11.00
2018-05-07T05:01:51.829Z,11.10
2018-05-07T05:04:20.103Z,11.20
2018-05-07T05:06:47.604Z,11.20
2018-05-07T05:09:15.113Z,11.20
2018-05-07T05:11:42.613Z,11.30
2018-05-07T05:20:05.253Z,11.50
2018-05-07T06:26:34.172Z,14.10
2018-05-07T06:29:01.670Z,14.20
2018-05-07T06:31:29.938Z,14.40
2018-05-07T06:33:57.439Z,14.30
2018-05-07T06:36:24.941Z,14.40
2018-05-07T06:38:52.463Z,14.60
2018-05-07T06:41:19.986Z,14.70
2018-05-07T06:43:47.509Z,14.70
2018-05-07T06:46:15.030Z,14.80
2018-05-07T06:48:42.554Z,15.00
2018-05-07T06:51:10.829Z,15.10
2018-05-07T06:53:38.596Z,15.10
2018-05-07T06:56:06.098Z,15.10
2018-05-07T06:58:33.622Z,15.30
2018-05-07T07:01:01.906Z,15.50
2018-05-07T07:03:30.174Z,15.70
2018-05-07T07:05:58.442Z,15.80
2018-05-07T07:08:26.047Z,15.80
2018-05-07T07:10:53.461Z,15.80
2018-05-07T07:13:39.716Z,16.00
2018-05-07T07:19:01.700Z,16.40
2018-05-07T07:21:36.373Z,16.40
2018-05-07T07:24:03.912Z,16.30
2018-05-07T07:26:32.182Z,16.60
2018-05-07T07:29:00.446Z,16.80
2018-05-07T07:31:27.968Z,16.80
2018-05-07T07:33:55.519Z,16.90
2018-05-07T07:36:23.009Z,17.00
2018-05-07T07:38:50.505Z,17.10
2018-05-07T07:41:18.774Z,17.20
2018-05-07T07:43:47.032Z,17.50
2018-05-07T07:46:14.534Z,17.50
2018-05-07T07:48:42.038Z,17.80
2018-05-07T07:51:09.549Z,18.00
2018-05-07T07:53:37.114Z,18.10
2018-05-07T07:56:04.574Z,18.10
2018-05-07T07:58:32.077Z,18.10
2018-05-07T08:00:59.573Z,18.40
2018-05-07T08:03:27.845Z,18.30
2018-05-07T08:05:56.128Z,18.50
2018-05-07T08:08:24.393Z,18.70
2018-05-07T08:10:52.659Z,18.70
2018-05-07T08:19:05.967Z,18.80
2018-05-07T08:21:52.386Z,18.90
2018-05-07T08:24:19.913Z,19.00
2018-05-07T08:26:48.344Z,19.00
2018-05-07T08:29:15.853Z,19.00
2018-05-07T08:31:44.118Z,19.60
2018-05-07T08:34:12.381Z,19.60
2018-05-07T08:36:39.896Z,19.60
2018-05-07T08:39:07.403Z,19.80
2018-05-07T08:41:34.911Z,19.70
2018-05-07T08:44:02.411Z,19.80
2018-05-07T08:46:29.909Z,19.80
2018-05-07T08:48:57.425Z,19.90
2018-05-07T08:51:24.924Z,20.10
2018-05-07T08:53:52.425Z,20.00
2018-05-07T08:56:19.993Z,20.00
2018-05-07T08:58:47.484Z,20.30
2018-05-07T09:01:15.762Z,20.70
2018-05-07T09:03:44.022Z,20.90
2018-05-07T09:06:11.522Z,20.90
2018-05-07T09:08:39.028Z,20.70
2018-05-07T09:11:06.520Z,21.00
2018-05-07T09:16:27.321Z,21.30
2018-05-07T09:19:00.756Z,21.20
2018-05-07T09:21:28.499Z,21.50
2018-05-07T10:12:22.950Z,24.50
2018-05-07T10:14:50.454Z,24.40
2018-05-07T10:17:21.706Z,24.30
2018-05-07T10:19:54.986Z,24.10
2018-05-07T11:14:23.069Z,25.70
2018-05-07T11:16:50.833Z,26.20
2018-05-07T11:19:19.761Z,26.40
2018-05-07T11:21:51.537Z,26.10
2018-05-07T11:24:19.065Z,26.10
2018-05-07T11:26:46.668Z,25.40
2018-05-07T11:29:14.166Z,25.90
2018-05-07T11:31:41.669Z,25.90
2018-05-07T11:34:09.166Z,26.50
2018-05-07T11:36:37.435Z,26.20
2018-05-07T11:39:05.880Z,26.10
2018-05-07T11:41:33.363Z,26.50
2018-05-07T11:44:00.865Z,26.20
2018-05-07T11:46:28.369Z,26.50
2018-05-07T11:48:55.861Z,26.40
2018-05-07T11:51:24.125Z,26.80
2018-05-07T11:53:51.630Z,26.80
2018-05-07T11:56:19.128Z,26.80
2018-05-07T11:58:46.622Z,25.70
2018-05-07T12:01:14.912Z,25.80
2018-05-07T12:03:42.424Z,25.80
2018-05-07T12:06:09.918Z,26.00
2018-05-07T12:08:38.186Z,25.10
2018-05-07T12:11:06.441Z,25.10
2018-05-07T12:13:33.937Z,25.20
2018-05-07T12:16:01.470Z,24.60
2018-05-07T12:21:22.424Z,25.50
2018-05-07T12:23:49.918Z,25.40
2018-05-07T12:26:17.430Z,24.70
2018-05-07T12:28:45.685Z,24.80
2018-05-07T12:31:13.261Z,24.80
2018-05-07T12:33:40.697Z,24.80
2018-05-07T12:36:08.209Z,25.80
2018-05-07T12:38:35.708Z,25.40
2018-05-07T12:41:03.204Z,25.00
2018-05-07T12:43:31.475Z,24.80
2018-05-07T12:45:59.740Z,25.20
2018-05-07T12:48:27.249Z,25.20
2018-05-07T12:50:54.753Z,25.30
2018-05-07T12:53:22.254Z,25.00
2018-05-07T12:55:49.758Z,24.60
2018-05-07T12:58:17.257Z,24.90
2018-05-07T13:00:44.753Z,24.90
2018-05-07T13:03:12.258Z,25.70
2018-05-07T13:05:40.526Z,25.50
2018-05-07T13:08:08.025Z,25.50
2018-05-07T13:10:35.530Z,26.00
2018-05-07T13:13:03.034Z,26.10
2018-05-07T13:15:30.553Z,26.40
2018-05-07T13:17:58.055Z,26.30
2018-05-07T13:20:25.549Z,27.10
2018-05-07T13:23:16.417Z,27.40
2018-05-07T13:25:44.018Z,27.20
2018-05-07T13:28:11.528Z,26.40
2018-05-07T13:30:39.793Z,26.90
2018-05-07T13:33:08.064Z,27.10
2018-05-07T13:35:35.566Z,27.10
2018-05-07T13:38:03.067Z,26.70
2018-05-07T13:40:30.569Z,26.50
2018-05-07T13:42:58.089Z,26.90
2018-05-07T13:45:25.585Z,27.70
2018-05-07T13:47:53.089Z,27.50
2018-05-07T13:50:20.587Z,27.90
2018-05-07T13:52:48.858Z,26.40
2018-05-07T13:55:17.202Z,26.90
2018-05-07T13:57:45.396Z,27.70
2018-05-07T14:00:12.895Z,27.70
2018-05-07T14:02:40.416Z,28.20
2018-05-07T14:05:07.928Z,27.90
2018-05-07T14:07:35.434Z,27.90
2018-05-07T14:10:02.930Z,27.10
2018-05-07T14:12:30.438Z,27.30
2018-05-07T14:20:54.337Z,28.20
2018-05-07T14:23:21.833Z,27.30
2018-05-07T14:25:50.098Z,27.30
2018-05-07T14:28:18.390Z,26.80
2018-05-07T14:30:46.653Z,26.50
2018-05-07T14:33:14.154Z,26.60
2018-05-07T14:35:41.663Z,28.10
2018-05-07T14:38:09.226Z,27.30
2018-05-07T14:40:36.726Z,26.50
2018-05-07T14:43:04.249Z,27.10
2018-05-07T14:45:31.754Z,26.90
2018-05-07T14:47:59.256Z,26.70
2018-05-07T14:50:26.754Z,26.90
2018-05-07T14:52:55.020Z,26.70
2018-05-07T14:55:23.281Z,26.40
2018-05-07T14:57:50.800Z,26.40
2018-05-07T15:00:18.299Z,26.80
2018-05-07T15:02:45.797Z,27.00
2018-05-07T15:05:13.294Z,26.20
2018-05-07T15:07:40.801Z,26.50
2018-05-07T15:10:09.082Z,26.70
2018-05-07T15:12:36.748Z,26.70
2018-05-07T15:17:57.093Z,26.40
2018-05-07T15:20:24.589Z,26.70
2018-05-07T16:20:30.877Z,26.60
2018-05-07T16:22:58.560Z,26.60
2018-05-07T16:25:26.062Z,26.00
2018-05-07T16:27:53.565Z,26.20
2018-05-07T16:30:21.067Z,26.40
2018-05-07T16:32:48.585Z,26.30
2018-05-07T16:35:16.090Z,26.20
2018-05-07T16:37:43.649Z,25.80
2018-05-07T16:40:11.138Z,26.20
2018-05-07T16:42:39.478Z,26.20
2018-05-07T16:45:07.678Z,26.20
2018-05-07T16:47:35.177Z,26.10
2018-05-07T16:50:02.687Z,26.20
2018-05-07T16:52:30.185Z,26.40
2018-05-07T16:54:57.778Z,26.20
2018-05-07T16:57:25.317Z,26.10
2018-05-07T16:59:53.561Z,26.00
2018-05-07T17:02:21.829Z,26.00
2018-05-07T17:04:49.329Z,26.00
2018-05-07T17:07:16.825Z,26.00
2018-05-07T17:09:44.329Z,25.90
2018-05-07T17:15:06.526Z,25.70
2018-05-07T18:18:05.248Z,21.90
2018-05-07T18:20:32.741Z,21.50
2018-05-07T18:23:01.007Z,21.20
2018-05-07T18:25:28.829Z,21.20
2018-05-07T18:27:56.329Z,21.10
2018-05-07T18:30:23.837Z,20.80
2018-05-07T18:32:51.341Z,20.60
2018-05-07T18:35:18.862Z,20.40
2018-05-07T18:37:46.361Z,20.20
2018-05-07T18:40:13.856Z,20.00
2018-05-07T18:42:41.373Z,19.60
2018-05-07T18:45:08.882Z,19.40
2018-05-07T18:47:36.395Z,19.00
2018-05-07T18:50:03.893Z,19.10
2018-05-07T18:52:31.401Z,18.80
2018-05-07T18:54:58.906Z,18.50
2018-05-07T18:57:27.172Z,18.30
2018-05-07T18:59:55.453Z,18.30
2018-05-07T19:02:23.721Z,18.10
2018-05-07T19:04:51.993Z,18.20
2018-05-07T19:07:20.261Z,18.00
2018-05-07T19:09:47.761Z,18.00
2018-05-07T19:12:15.261Z,17.70
2018-05-07T19:17:35.476Z,17.60
2018-05-07T19:20:12.918Z,17.40
2018-05-07T19:22:40.442Z,17.20
2018-05-07T20:13:47.058Z,15.70
2018-05-07T20:16:15.321Z,15.60
2018-05-07T20:18:48.710Z,15.60
2018-05-07T20:21:16.205Z,15.90
2018-05-07T20:23:44.502Z,15.70
2018-05-07T20:26:12.156Z,15.70
2018-05-07T20:28:39.661Z,15.20
2018-05-07T20:31:07.230Z,15.30
2018-05-07T20:33:34.734Z,15.10
2018-05-07T20:36:02.337Z,15.00
2018-05-07T20:38:30.021Z,15.20
2018-05-07T20:40:57.591Z,15.20
2018-05-07T20:43:25.885Z,15.10
2018-05-07T20:48:28.060Z,14.90
2018-05-07T20:50:56.349Z,14.80
2018-05-07T20:53:24.617Z,14.70
2018-05-07T20:55:52.877Z,14.60
2018-05-07T20:58:21.397Z,14.60
2018-05-07T21:00:48.942Z,14.70
2018-05-07T21:03:17.209Z,14.70
2018-05-07T21:05:45.468Z,14.60
2018-05-07T21:08:13.009Z,14.60
2018-05-07T21:10:40.751Z,14.70
2018-05-07T21:13:08.276Z,14.50
2018-05-07T21:15:37.433Z,14.40
2018-05-07T21:18:04.933Z,14.30
2018-05-07T21:20:33.246Z,14.50
2018-05-07T21:23:00.753Z,14.50
2018-05-07T21:25:28.248Z,14.40
2018-05-07T21:27:55.893Z,14.20
2018-05-07T21:30:24.155Z,14.10
2018-05-07T21:32:53.493Z,14.10
2018-05-07T21:35:21.127Z,14.10
2018-05-07T21:37:49.413Z,14.10
2018-05-07T21:40:17.784Z,13.90
2018-05-07T21:42:46.054Z,14.00
2018-05-07T21:45:14.317Z,14.10
2018-05-07T21:47:41.817Z,14.00
2018-05-07T21:50:09.325Z,13.90
2018-05-07T21:52:36.833Z,13.90
2018-05-07T21:55:04.365Z,14.00
2018-05-07T21:57:32.652Z,14.10
2018-05-07T22:00:01.050Z,13.90
2018-05-07T22:02:28.596Z,13.80
2018-05-07T22:04:57.060Z,14.40
2018-05-07T22:07:25.324Z,14.40
2018-05-07T22:09:52.837Z,14.40
2018-05-07T22:12:21.062Z,14.40
2018-05-07T22:17:42.541Z,14.30
2018-05-07T23:17:45.702Z,13.50
